sensor_id;sensor_type;location;lat;lon;timestamp;temperature;humidity
11609;DHT22;5860;52.018;8.536;2022-10-17T00:02:23;14.80;99.90
11609;DHT22;5860;52.018;8.536;2022-10-17T00:04:50;14.80;99.90
11609;DHT22;5860;52.018;8.536;2022-10-17T00:07:17;15.00;99.90
11609;DHT22;5860;52.018;8.536;2022-10-17T00:09:44;15.00;99.90
11609;DHT22;5860;52.018;8.536;2022-10-17T00:12:11;14.80;99.90
11609;DHT22;5860;52.018;8.536;2022-10-17T00:14:37;14.90;99.90
11609;DHT22;5860;52.018;8.536;2022-10-17T00:17:05;14.90;99.90
11609;DHT22;5860;52.018;8.536;2022-10-17T00:19:31;14.90;99.90
11609;DHT22;5860;52.018;8.536;2022-10-17T00:21:58;14.90;99.90
11609;DHT22;5860;52.018;8.536;2022-10-17T00:24:25;14.80;99.90
11609;DHT22;5860;52.018;8.536;2022-10-17T00:26:52;14.80;99.90
11609;DHT22;5860;52.018;8.536;2022-10-17T00:29:19;14.80;99.90
11609;DHT22;5860;52.018;8.536;2022-10-17T00:31:46;14.80;99.90
11609;DHT22;5860;52.018;8.536;2022-10-17T00:34:12;14.80;99.90
11609;DHT22;5860;52.018;8.536;2022-10-17T00:36:39;14.80;99.90
11609;DHT22;5860;52.018;8.536;2022-10-17T00:39:06;14.90;99.90
11609;DHT22;5860;52.018;8.536;2022-10-17T00:41:33;14.80;99.90
11609;DHT22;5860;52.018;8.536;2022-10-17T00:44:05;14.80;99.90
11609;DHT22;5860;52.018;8.536;2022-10-17T00:46:35;14.90;99.90
11609;DHT22;5860;52.018;8.536;2022-10-17T00:49:09;14.80;99.90
11609;DHT22;5860;52.018;8.536;2022-10-17T00:51:41;14.80;99.90
11609;DHT22;5860;52.018;8.536;2022-10-17T00:54:09;14.80;99.90
11609;DHT22;5860;52.018;8.536;2022-10-17T00:56:37;14.90;99.90
11609;DHT22;5860;52.018;8.536;2022-10-17T00:59:10;14.80;99.90
11609;DHT22;5860;52.018;8.536;2022-10-17T01:01:39;14.90;99.90
11609;DHT22;5860;52.018;8.536;2022-10-17T01:04:07;14.90;99.90
11609;DHT22;5860;52.018;8.536;2022-10-17T01:06:34;14.90;99.90
11609;DHT22;5860;52.018;8.536;2022-10-17T01:09:00;14.90;99.90
11609;DHT22;5860;52.018;8.536;2022-10-17T01:31:39;14.90;99.90
11609;DHT22;5860;52.018;8.536;2022-10-17T01:34:24;14.80;99.90
11609;DHT22;5860;52.018;8.536;2022-10-17T01:42:34;14.90;99.90
11609;DHT22;5860;52.018;8.536;2022-10-17T01:45:11;14.90;99.90
11609;DHT22;5860;52.018;8.536;2022-10-17T01:47:41;14.90;99.90
11609;DHT22;5860;52.018;8.536;2022-10-17T01:50:13;15.00;99.90
11609;DHT22;5860;52.018;8.536;2022-10-17T01:52:44;15.10;99.90
11609;DHT22;5860;52.018;8.536;2022-10-17T01:55:34;15.20;99.90
11609;DHT22;5860;52.018;8.536;2022-10-17T01:58:23;15.10;99.90
11609;DHT22;5860;52.018;8.536;2022-10-17T02:00:53;15.10;99.90
11609;DHT22;5860;52.018;8.536;2022-10-17T02:03:22;15.10;99.90
11609;DHT22;5860;52.018;8.536;2022-10-17T02:05:50;15.10;99.90
11609;DHT22;5860;52.018;8.536;2022-10-17T02:08:28;15.00;99.90
11609;DHT22;5860;52.018;8.536;2022-10-17T02:11:13;15.10;99.90
11609;DHT22;5860;52.018;8.536;2022-10-17T02:21:44;15.00;99.90
11609;DHT22;5860;52.018;8.536;2022-10-17T02:24:24;15.00;99.90
11609;DHT22;5860;52.018;8.536;2022-10-17T02:29:33;15.10;99.90
11609;DHT22;5860;52.018;8.536;2022-10-17T02:32:05;15.10;99.90
11609;DHT22;5860;52.018;8.536;2022-10-17T02:34:41;15.10;99.90
11609;DHT22;5860;52.018;8.536;2022-10-17T02:37:11;15.10;99.90
11609;DHT22;5860;52.018;8.536;2022-10-17T02:39:39;15.00;99.90
11609;DHT22;5860;52.018;8.536;2022-10-17T02:42:09;15.10;99.90
11609;DHT22;5860;52.018;8.536;2022-10-17T02:44:38;15.10;99.90
11609;DHT22;5860;52.018;8.536;2022-10-17T02:49:41;15.10;99.90
11609;DHT22;5860;52.018;8.536;2022-10-17T02:52:27;15.10;99.90
11609;DHT22;5860;52.018;8.536;2022-10-17T02:55:21;15.20;99.90
11609;DHT22;5860;52.018;8.536;2022-10-17T02:57:52;15.20;99.90
11609;DHT22;5860;52.018;8.536;2022-10-17T03:00:21;15.20;99.90
11609;DHT22;5860;52.018;8.536;2022-10-17T03:02:51;15.20;99.90
11609;DHT22;5860;52.018;8.536;2022-10-17T03:05:22;15.20;99.90
11609;DHT22;5860;52.018;8.536;2022-10-17T03:07:50;15.20;99.90
11609;DHT22;5860;52.018;8.536;2022-10-17T03:10:18;15.20;99.90
11609;DHT22;5860;52.018;8.536;2022-10-17T03:12:45;15.30;99.90
11609;DHT22;5860;52.018;8.536;2022-10-17T03:15:12;15.30;99.90
11609;DHT22;5860;52.018;8.536;2022-10-17T03:17:39;15.30;99.90
11609;DHT22;5860;52.018;8.536;2022-10-17T03:20:06;15.40;99.90
11609;DHT22;5860;52.018;8.536;2022-10-17T03:22:33;15.50;99.90
11609;DHT22;5860;52.018;8.536;2022-10-17T03:25:00;15.60;99.90
11609;DHT22;5860;52.018;8.536;2022-10-17T03:27:27;15.80;99.90
11609;DHT22;5860;52.018;8.536;2022-10-17T03:29:54;15.80;99.90
11609;DHT22;5860;52.018;8.536;2022-10-17T03:32:21;16.00;99.90
11609;DHT22;5860;52.018;8.536;2022-10-17T03:34:47;16.30;99.90
11609;DHT22;5860;52.018;8.536;2022-10-17T03:37:14;16.40;99.90
11609;DHT22;5860;52.018;8.536;2022-10-17T03:39:41;16.60;99.90
11609;DHT22;5860;52.018;8.536;2022-10-17T03:42:08;16.90;99.90
11609;DHT22;5860;52.018;8.536;2022-10-17T03:44:35;17.10;99.90
11609;DHT22;5860;52.018;8.536;2022-10-17T03:47:01;17.40;99.90
11609;DHT22;5860;52.018;8.536;2022-10-17T03:49:28;17.70;99.90
11609;DHT22;5860;52.018;8.536;2022-10-17T03:51:55;17.80;99.90
11609;DHT22;5860;52.018;8.536;2022-10-17T03:54:22;17.90;99.90
11609;DHT22;5860;52.018;8.536;2022-10-17T03:56:49;18.00;99.90
11609;DHT22;5860;52.018;8.536;2022-10-17T03:59:16;18.00;99.90
11609;DHT22;5860;52.018;8.536;2022-10-17T04:01:43;18.10;99.90
11609;DHT22;5860;52.018;8.536;2022-10-17T04:04:10;18.20;99.90
11609;DHT22;5860;52.018;8.536;2022-10-17T04:06:37;17.90;99.90
11609;DHT22;5860;52.018;8.536;2022-10-17T04:09:05;18.10;99.90
11609;DHT22;5860;52.018;8.536;2022-10-17T04:11:33;18.00;99.90
11609;DHT22;5860;52.018;8.536;2022-10-17T04:14:00;17.90;99.90
11609;DHT22;5860;52.018;8.536;2022-10-17T04:16:26;18.00;99.90
11609;DHT22;5860;52.018;8.536;2022-10-17T04:18:55;17.90;99.90
11609;DHT22;5860;52.018;8.536;2022-10-17T04:21:24;17.70;99.90
11609;DHT22;5860;52.018;8.536;2022-10-17T04:23:55;17.70;99.90
11609;DHT22;5860;52.018;8.536;2022-10-17T04:26:22;17.60;99.90
11609;DHT22;5860;52.018;8.536;2022-10-17T04:28:50;17.40;99.90
11609;DHT22;5860;52.018;8.536;2022-10-17T04:31:17;17.30;99.90
11609;DHT22;5860;52.018;8.536;2022-10-17T04:33:48;17.20;99.90
11609;DHT22;5860;52.018;8.536;2022-10-17T04:36:17;17.20;99.90
11609;DHT22;5860;52.018;8.536;2022-10-17T04:38:44;16.90;99.90
11609;DHT22;5860;52.018;8.536;2022-10-17T04:41:14;16.80;99.90
11609;DHT22;5860;52.018;8.536;2022-10-17T04:43:41;17.00;99.90
11609;DHT22;5860;52.018;8.536;2022-10-17T04:46:14;17.20;99.90
11609;DHT22;5860;52.018;8.536;2022-10-17T04:48:41;17.00;99.90
11609;DHT22;5860;52.018;8.536;2022-10-17T04:51:11;17.00;99.90
11609;DHT22;5860;52.018;8.536;2022-10-17T04:53:40;17.00;99.90
11609;DHT22;5860;52.018;8.536;2022-10-17T04:56:15;17.00;99.90
11609;DHT22;5860;52.018;8.536;2022-10-17T04:58:43;17.10;99.90
11609;DHT22;5860;52.018;8.536;2022-10-17T05:01:12;16.90;99.90
11609;DHT22;5860;52.018;8.536;2022-10-17T05:03:40;16.90;99.90
11609;DHT22;5860;52.018;8.536;2022-10-17T05:06:12;16.90;99.90
11609;DHT22;5860;52.018;8.536;2022-10-17T05:08:39;16.90;99.90
11609;DHT22;5860;52.018;8.536;2022-10-17T05:11:15;16.80;99.90
11609;DHT22;5860;52.018;8.536;2022-10-17T05:13:42;16.80;99.90
11609;DHT22;5860;52.018;8.536;2022-10-17T05:16:09;16.80;99.90
11609;DHT22;5860;52.018;8.536;2022-10-17T05:18:36;16.80;99.90
11609;DHT22;5860;52.018;8.536;2022-10-17T05:21:03;16.80;99.90
11609;DHT22;5860;52.018;8.536;2022-10-17T05:23:30;16.80;99.90
11609;DHT22;5860;52.018;8.536;2022-10-17T05:25:57;16.80;99.90
11609;DHT22;5860;52.018;8.536;2022-10-17T05:28:24;16.80;99.90
11609;DHT22;5860;52.018;8.536;2022-10-17T05:30:51;16.70;99.90
11609;DHT22;5860;52.018;8.536;2022-10-17T05:33:17;16.70;99.90
11609;DHT22;5860;52.018;8.536;2022-10-17T05:35:44;16.80;99.90
11609;DHT22;5860;52.018;8.536;2022-10-17T05:38:11;16.90;99.90
11609;DHT22;5860;52.018;8.536;2022-10-17T05:40:38;16.80;99.90
11609;DHT22;5860;52.018;8.536;2022-10-17T05:43:05;16.80;99.90
11609;DHT22;5860;52.018;8.536;2022-10-17T05:45:32;16.90;99.90
11609;DHT22;5860;52.018;8.536;2022-10-17T05:47:59;17.00;99.90
11609;DHT22;5860;52.018;8.536;2022-10-17T05:50:26;16.90;99.90
11609;DHT22;5860;52.018;8.536;2022-10-17T05:52:53;16.90;99.90
11609;DHT22;5860;52.018;8.536;2022-10-17T05:55:21;16.80;99.90
11609;DHT22;5860;52.018;8.536;2022-10-17T05:57:48;16.80;99.90
11609;DHT22;5860;52.018;8.536;2022-10-17T06:00:16;16.90;99.90
11609;DHT22;5860;52.018;8.536;2022-10-17T06:02:43;16.80;99.90
11609;DHT22;5860;52.018;8.536;2022-10-17T06:05:12;16.80;99.90
11609;DHT22;5860;52.018;8.536;2022-10-17T06:07:39;16.80;99.90
11609;DHT22;5860;52.018;8.536;2022-10-17T06:10:06;16.90;99.90
11609;DHT22;5860;52.018;8.536;2022-10-17T06:12:33;16.90;99.90
11609;DHT22;5860;52.018;8.536;2022-10-17T06:15:00;17.00;99.90
11609;DHT22;5860;52.018;8.536;2022-10-17T06:17:27;17.00;99.90
11609;DHT22;5860;52.018;8.536;2022-10-17T06:19:55;17.20;99.90
11609;DHT22;5860;52.018;8.536;2022-10-17T06:22:22;17.30;99.90
11609;DHT22;5860;52.018;8.536;2022-10-17T06:24:49;17.30;99.90
11609;DHT22;5860;52.018;8.536;2022-10-17T06:27:19;17.30;99.90
11609;DHT22;5860;52.018;8.536;2022-10-17T06:29:46;17.40;99.90
11609;DHT22;5860;52.018;8.536;2022-10-17T06:32:13;17.30;99.90
11609;DHT22;5860;52.018;8.536;2022-10-17T06:34:52;17.50;99.90
11609;DHT22;5860;52.018;8.536;2022-10-17T06:37:19;17.60;99.90
11609;DHT22;5860;52.018;8.536;2022-10-17T06:39:45;17.50;99.90
11609;DHT22;5860;52.018;8.536;2022-10-17T06:42:12;17.60;99.90
11609;DHT22;5860;52.018;8.536;2022-10-17T06:44:39;17.60;99.90
11609;DHT22;5860;52.018;8.536;2022-10-17T06:47:08;17.70;99.90
11609;DHT22;5860;52.018;8.536;2022-10-17T06:49:35;17.90;99.90
11609;DHT22;5860;52.018;8.536;2022-10-17T06:52:01;18.00;99.90
11609;DHT22;5860;52.018;8.536;2022-10-17T06:54:28;18.10;99.90
11609;DHT22;5860;52.018;8.536;2022-10-17T06:56:55;18.20;99.90
11609;DHT22;5860;52.018;8.536;2022-10-17T06:59:22;18.30;99.90
11609;DHT22;5860;52.018;8.536;2022-10-17T07:01:51;18.40;99.90
11609;DHT22;5860;52.018;8.536;2022-10-17T07:04:18;18.50;99.90
11609;DHT22;5860;52.018;8.536;2022-10-17T07:06:45;18.50;99.90
11609;DHT22;5860;52.018;8.536;2022-10-17T07:09:12;18.60;99.90
11609;DHT22;5860;52.018;8.536;2022-10-17T07:11:38;18.60;99.90
11609;DHT22;5860;52.018;8.536;2022-10-17T07:14:05;18.60;99.90
11609;DHT22;5860;52.018;8.536;2022-10-17T07:16:33;18.70;99.90
11609;DHT22;5860;52.018;8.536;2022-10-17T07:18:59;18.70;99.90
11609;DHT22;5860;52.018;8.536;2022-10-17T07:21:26;18.70;99.90
11609;DHT22;5860;52.018;8.536;2022-10-17T07:23:53;18.70;99.90
11609;DHT22;5860;52.018;8.536;2022-10-17T07:26:20;18.80;99.90
11609;DHT22;5860;52.018;8.536;2022-10-17T07:28:51;18.90;99.90
11609;DHT22;5860;52.018;8.536;2022-10-17T07:31:19;18.90;99.90
11609;DHT22;5860;52.018;8.536;2022-10-17T07:33:47;19.00;99.90
11609;DHT22;5860;52.018;8.536;2022-10-17T07:36:15;19.00;99.90
11609;DHT22;5860;52.018;8.536;2022-10-17T07:38:42;19.00;99.90
11609;DHT22;5860;52.018;8.536;2022-10-17T07:41:10;19.10;99.90
11609;DHT22;5860;52.018;8.536;2022-10-17T07:43:44;19.20;99.90
11609;DHT22;5860;52.018;8.536;2022-10-17T07:46:11;19.20;99.90
11609;DHT22;5860;52.018;8.536;2022-10-17T07:48:38;19.30;99.90
11609;DHT22;5860;52.018;8.536;2022-10-17T07:51:08;19.30;99.90
11609;DHT22;5860;52.018;8.536;2022-10-17T07:53:37;19.40;99.90
11609;DHT22;5860;52.018;8.536;2022-10-17T07:56:07;19.50;99.90
11609;DHT22;5860;52.018;8.536;2022-10-17T07:58:35;19.60;99.90
11609;DHT22;5860;52.018;8.536;2022-10-17T08:01:04;19.70;99.90
11609;DHT22;5860;52.018;8.536;2022-10-17T08:03:35;19.70;99.90
11609;DHT22;5860;52.018;8.536;2022-10-17T08:06:02;19.70;99.90
11609;DHT22;5860;52.018;8.536;2022-10-17T08:08:29;19.80;99.90
11609;DHT22;5860;52.018;8.536;2022-10-17T08:11:02;19.80;99.90
11609;DHT22;5860;52.018;8.536;2022-10-17T08:13:29;19.80;99.90
11609;DHT22;5860;52.018;8.536;2022-10-17T08:16:04;19.80;99.90
11609;DHT22;5860;52.018;8.536;2022-10-17T08:18:33;19.80;99.90
11609;DHT22;5860;52.018;8.536;2022-10-17T08:21:02;19.90;99.90
11609;DHT22;5860;52.018;8.536;2022-10-17T08:23:29;19.90;99.90
11609;DHT22;5860;52.018;8.536;2022-10-17T08:25:58;19.90;99.90
11609;DHT22;5860;52.018;8.536;2022-10-17T08:28:26;19.80;99.90
11609;DHT22;5860;52.018;8.536;2022-10-17T08:31:00;19.80;99.90
11609;DHT22;5860;52.018;8.536;2022-10-17T08:33:27;19.90;99.90
11609;DHT22;5860;52.018;8.536;2022-10-17T08:35:53;20.00;99.90
11609;DHT22;5860;52.018;8.536;2022-10-17T08:38:20;20.00;99.90
11609;DHT22;5860;52.018;8.536;2022-10-17T08:40:50;20.20;99.90
11609;DHT22;5860;52.018;8.536;2022-10-17T08:43:56;20.10;99.90
11609;DHT22;5860;52.018;8.536;2022-10-17T08:46:33;20.20;99.90
11609;DHT22;5860;52.018;8.536;2022-10-17T08:49:04;20.30;99.90
11609;DHT22;5860;52.018;8.536;2022-10-17T08:51:42;20.20;99.90
11609;DHT22;5860;52.018;8.536;2022-10-17T08:54:22;20.40;99.90
11609;DHT22;5860;52.018;8.536;2022-10-17T08:56:53;20.60;99.90
11609;DHT22;5860;52.018;8.536;2022-10-17T08:59:28;20.70;99.90
11609;DHT22;5860;52.018;8.536;2022-10-17T09:18:49;21.00;99.90
11609;DHT22;5860;52.018;8.536;2022-10-17T09:23:59;21.20;99.90
11609;DHT22;5860;52.018;8.536;2022-10-17T09:26:39;21.30;99.90
11609;DHT22;5860;52.018;8.536;2022-10-17T09:29:26;21.50;99.90
11609;DHT22;5860;52.018;8.536;2022-10-17T09:32:03;21.70;99.90
11609;DHT22;5860;52.018;8.536;2022-10-17T09:34:34;21.80;99.90
11609;DHT22;5860;52.018;8.536;2022-10-17T09:37:01;22.00;99.90
11609;DHT22;5860;52.018;8.536;2022-10-17T09:39:28;22.00;99.90
11609;DHT22;5860;52.018;8.536;2022-10-17T09:41:59;22.10;99.90
11609;DHT22;5860;52.018;8.536;2022-10-17T09:44:34;21.90;99.90
11609;DHT22;5860;52.018;8.536;2022-10-17T09:49:45;22.00;99.90
11609;DHT22;5860;52.018;8.536;2022-10-17T09:54:48;22.10;99.90
11609;DHT22;5860;52.018;8.536;2022-10-17T09:57:17;22.20;99.90
11609;DHT22;5860;52.018;8.536;2022-10-17T09:59:59;22.30;99.90
11609;DHT22;5860;52.018;8.536;2022-10-17T10:02:29;22.40;99.90
11609;DHT22;5860;52.018;8.536;2022-10-17T10:05:04;22.30;99.90
11609;DHT22;5860;52.018;8.536;2022-10-17T10:07:42;22.20;99.90
11609;DHT22;5860;52.018;8.536;2022-10-17T10:10:25;22.20;99.90
11609;DHT22;5860;52.018;8.536;2022-10-17T10:13:16;22.20;99.90
11609;DHT22;5860;52.018;8.536;2022-10-17T10:15:46;21.90;99.90
11609;DHT22;5860;52.018;8.536;2022-10-17T10:21:10;22.20;99.90
11609;DHT22;5860;52.018;8.536;2022-10-17T10:23:39;22.30;99.90
11609;DHT22;5860;52.018;8.536;2022-10-17T10:26:24;22.40;99.90
11609;DHT22;5860;52.018;8.536;2022-10-17T10:29:00;22.40;99.90
11609;DHT22;5860;52.018;8.536;2022-10-17T10:31:34;22.50;99.90
11609;DHT22;5860;52.018;8.536;2022-10-17T10:34:25;22.50;99.90
11609;DHT22;5860;52.018;8.536;2022-10-17T10:39:36;22.60;99.90
11609;DHT22;5860;52.018;8.536;2022-10-17T10:42:07;22.70;99.90
11609;DHT22;5860;52.018;8.536;2022-10-17T10:44:38;22.70;99.90
11609;DHT22;5860;52.018;8.536;2022-10-17T10:47:27;22.80;99.90
11609;DHT22;5860;52.018;8.536;2022-10-17T10:55:33;22.90;99.90
11609;DHT22;5860;52.018;8.536;2022-10-17T10:58:44;22.90;99.90
11609;DHT22;5860;52.018;8.536;2022-10-17T11:04:18;22.90;99.90
11609;DHT22;5860;52.018;8.536;2022-10-17T11:06:49;22.70;99.90
11609;DHT22;5860;52.018;8.536;2022-10-17T11:12:35;23.00;99.90
11609;DHT22;5860;52.018;8.536;2022-10-17T11:25:51;22.80;99.90
11609;DHT22;5860;52.018;8.536;2022-10-17T11:28:21;22.70;99.90
11609;DHT22;5860;52.018;8.536;2022-10-17T11:33:40;22.60;99.90
11609;DHT22;5860;52.018;8.536;2022-10-17T11:36:08;22.50;99.90
11609;DHT22;5860;52.018;8.536;2022-10-17T11:41:28;22.50;99.90
11609;DHT22;5860;52.018;8.536;2022-10-17T11:44:04;22.50;99.90
11609;DHT22;5860;52.018;8.536;2022-10-17T11:46:34;22.40;99.90
11609;DHT22;5860;52.018;8.536;2022-10-17T11:51:47;22.70;99.90
11609;DHT22;5860;52.018;8.536;2022-10-17T11:54:38;22.70;99.90
11609;DHT22;5860;52.018;8.536;2022-10-17T12:00:19;22.60;99.90
11609;DHT22;5860;52.018;8.536;2022-10-17T12:05:24;22.70;99.90
11609;DHT22;5860;52.018;8.536;2022-10-17T12:08:07;22.50;99.90
11609;DHT22;5860;52.018;8.536;2022-10-17T12:18:43;22.00;99.90
11609;DHT22;5860;52.018;8.536;2022-10-17T12:21:10;21.90;99.90
11609;DHT22;5860;52.018;8.536;2022-10-17T12:23:37;22.00;99.90
11609;DHT22;5860;52.018;8.536;2022-10-17T12:26:07;22.10;99.90
11609;DHT22;5860;52.018;8.536;2022-10-17T12:28:45;22.20;99.90
11609;DHT22;5860;52.018;8.536;2022-10-17T12:33:59;22.20;99.90
11609;DHT22;5860;52.018;8.536;2022-10-17T12:57:56;21.70;99.90
11609;DHT22;5860;52.018;8.536;2022-10-17T13:00:32;21.80;99.90
11609;DHT22;5860;52.018;8.536;2022-10-17T13:03:12;21.60;99.90
11609;DHT22;5860;52.018;8.536;2022-10-17T13:05:44;21.50;99.90
11609;DHT22;5860;52.018;8.536;2022-10-17T13:08:20;21.40;99.90
11609;DHT22;5860;52.018;8.536;2022-10-17T13:10:49;21.30;99.90
11609;DHT22;5860;52.018;8.536;2022-10-17T13:13:25;21.30;99.90
11609;DHT22;5860;52.018;8.536;2022-10-17T13:15:59;21.30;99.90
11609;DHT22;5860;52.018;8.536;2022-10-17T13:18:28;21.30;99.90
11609;DHT22;5860;52.018;8.536;2022-10-17T13:21:04;21.40;99.90
11609;DHT22;5860;52.018;8.536;2022-10-17T13:23:34;21.40;99.90
11609;DHT22;5860;52.018;8.536;2022-10-17T13:26:20;21.40;99.90
11609;DHT22;5860;52.018;8.536;2022-10-17T13:31:33;21.50;99.90
11609;DHT22;5860;52.018;8.536;2022-10-17T13:34:05;21.50;99.90
11609;DHT22;5860;52.018;8.536;2022-10-17T13:36:33;21.50;99.90
11609;DHT22;5860;52.018;8.536;2022-10-17T13:39:06;21.60;99.90
11609;DHT22;5860;52.018;8.536;2022-10-17T13:41:40;21.60;99.90
11609;DHT22;5860;52.018;8.536;2022-10-17T13:44:27;21.70;99.90
11609;DHT22;5860;52.018;8.536;2022-10-17T13:46:54;21.70;99.90
11609;DHT22;5860;52.018;8.536;2022-10-17T13:49:33;21.70;99.90
11609;DHT22;5860;52.018;8.536;2022-10-17T13:52:03;21.70;99.90
11609;DHT22;5860;52.018;8.536;2022-10-17T13:54:41;21.70;99.90
11609;DHT22;5860;52.018;8.536;2022-10-17T13:57:37;21.70;99.90
11609;DHT22;5860;52.018;8.536;2022-10-17T14:00:17;21.60;99.90
11609;DHT22;5860;52.018;8.536;2022-10-17T14:02:45;21.70;99.90
11609;DHT22;5860;52.018;8.536;2022-10-17T14:05:16;21.50;99.90
11609;DHT22;5860;52.018;8.536;2022-10-17T14:08:02;21.40;99.90
11609;DHT22;5860;52.018;8.536;2022-10-17T14:10:43;21.40;99.90
11609;DHT22;5860;52.018;8.536;2022-10-17T14:15:46;21.30;99.90
11609;DHT22;5860;52.018;8.536;2022-10-17T14:18:19;21.20;99.90
11609;DHT22;5860;52.018;8.536;2022-10-17T14:20:48;21.20;99.90
11609;DHT22;5860;52.018;8.536;2022-10-17T14:23:41;21.10;99.90
11609;DHT22;5860;52.018;8.536;2022-10-17T14:26:19;21.10;99.90
11609;DHT22;5860;52.018;8.536;2022-10-17T14:28:50;21.10;99.90
11609;DHT22;5860;52.018;8.536;2022-10-17T14:31:31;21.00;99.90
11609;DHT22;5860;52.018;8.536;2022-10-17T14:34:00;21.00;99.90
11609;DHT22;5860;52.018;8.536;2022-10-17T14:36:36;20.90;99.90
11609;DHT22;5860;52.018;8.536;2022-10-17T14:39:07;20.80;99.90
11609;DHT22;5860;52.018;8.536;2022-10-17T14:41:42;20.80;99.90
11609;DHT22;5860;52.018;8.536;2022-10-17T14:44:36;20.70;99.90
11609;DHT22;5860;52.018;8.536;2022-10-17T14:47:05;20.70;99.90
11609;DHT22;5860;52.018;8.536;2022-10-17T14:50:23;20.60;99.90
11609;DHT22;5860;52.018;8.536;2022-10-17T14:53:03;20.60;99.90
11609;DHT22;5860;52.018;8.536;2022-10-17T14:55:33;20.50;99.90
11609;DHT22;5860;52.018;8.536;2022-10-17T14:58:00;20.50;99.90
11609;DHT22;5860;52.018;8.536;2022-10-17T15:00:27;20.50;99.90
11609;DHT22;5860;52.018;8.536;2022-10-17T15:02:55;20.40;99.90
11609;DHT22;5860;52.018;8.536;2022-10-17T15:05:22;20.50;99.90
11609;DHT22;5860;52.018;8.536;2022-10-17T15:07:50;20.40;99.90
11609;DHT22;5860;52.018;8.536;2022-10-17T15:12:50;20.50;99.90
11609;DHT22;5860;52.018;8.536;2022-10-17T15:15:36;20.50;99.90
11609;DHT22;5860;52.018;8.536;2022-10-17T15:18:04;20.50;99.90
11609;DHT22;5860;52.018;8.536;2022-10-17T15:20:31;20.40;99.90
11609;DHT22;5860;52.018;8.536;2022-10-17T15:23:00;20.40;99.90
11609;DHT22;5860;52.018;8.536;2022-10-17T15:25:29;20.40;99.90
11609;DHT22;5860;52.018;8.536;2022-10-17T15:27:56;20.40;99.90
11609;DHT22;5860;52.018;8.536;2022-10-17T15:30:29;20.30;99.90
11609;DHT22;5860;52.018;8.536;2022-10-17T15:32:58;20.30;99.90
11609;DHT22;5860;52.018;8.536;2022-10-17T15:35:25;20.30;99.90
11609;DHT22;5860;52.018;8.536;2022-10-17T15:37:53;20.30;99.90
11609;DHT22;5860;52.018;8.536;2022-10-17T15:40:26;20.30;99.90
11609;DHT22;5860;52.018;8.536;2022-10-17T15:42:56;20.20;99.90
11609;DHT22;5860;52.018;8.536;2022-10-17T15:45:23;20.20;99.90
11609;DHT22;5860;52.018;8.536;2022-10-17T15:48:03;20.20;99.90
11609;DHT22;5860;52.018;8.536;2022-10-17T15:50:30;20.20;99.90
11609;DHT22;5860;52.018;8.536;2022-10-17T15:52:58;20.10;99.90
11609;DHT22;5860;52.018;8.536;2022-10-17T15:55:25;20.00;99.90
11609;DHT22;5860;52.018;8.536;2022-10-17T15:57:52;20.00;99.90
11609;DHT22;5860;52.018;8.536;2022-10-17T16:00:22;20.00;99.90
11609;DHT22;5860;52.018;8.536;2022-10-17T16:02:49;20.10;99.90
11609;DHT22;5860;52.018;8.536;2022-10-17T16:05:21;20.10;99.90
11609;DHT22;5860;52.018;8.536;2022-10-17T16:07:49;20.00;99.90
11609;DHT22;5860;52.018;8.536;2022-10-17T16:10:16;20.00;99.90
11609;DHT22;5860;52.018;8.536;2022-10-17T16:12:44;20.10;99.90
11609;DHT22;5860;52.018;8.536;2022-10-17T16:15:22;20.10;99.90
11609;DHT22;5860;52.018;8.536;2022-10-17T16:17:52;20.00;99.90
11609;DHT22;5860;52.018;8.536;2022-10-17T16:20:19;20.00;99.90
11609;DHT22;5860;52.018;8.536;2022-10-17T16:22:47;19.90;99.90
11609;DHT22;5860;52.018;8.536;2022-10-17T16:25:19;19.80;99.90
11609;DHT22;5860;52.018;8.536;2022-10-17T16:27:47;19.80;99.90
11609;DHT22;5860;52.018;8.536;2022-10-17T16:30:15;19.80;99.90
11609;DHT22;5860;52.018;8.536;2022-10-17T16:32:42;19.80;99.90
11609;DHT22;5860;52.018;8.536;2022-10-17T16:35:15;19.70;99.90
11609;DHT22;5860;52.018;8.536;2022-10-17T16:37:43;19.70;99.90
11609;DHT22;5860;52.018;8.536;2022-10-17T16:40:10;19.70;99.90
11609;DHT22;5860;52.018;8.536;2022-10-17T16:42:37;19.60;99.90
11609;DHT22;5860;52.018;8.536;2022-10-17T16:45:04;19.50;99.90
11609;DHT22;5860;52.018;8.536;2022-10-17T16:47:31;19.40;99.90
11609;DHT22;5860;52.018;8.536;2022-10-17T16:49:58;19.30;99.90
11609;DHT22;5860;52.018;8.536;2022-10-17T16:52:25;19.20;99.90
11609;DHT22;5860;52.018;8.536;2022-10-17T16:54:52;19.10;99.90
11609;DHT22;5860;52.018;8.536;2022-10-17T16:57:19;19.10;99.90
11609;DHT22;5860;52.018;8.536;2022-10-17T16:59:46;19.00;99.90
11609;DHT22;5860;52.018;8.536;2022-10-17T17:02:13;18.90;99.90
11609;DHT22;5860;52.018;8.536;2022-10-17T17:04:46;18.90;99.90
11609;DHT22;5860;52.018;8.536;2022-10-17T17:07:13;18.90;99.90
11609;DHT22;5860;52.018;8.536;2022-10-17T17:09:39;18.90;99.90
11609;DHT22;5860;52.018;8.536;2022-10-17T17:12:07;18.90;99.90
11609;DHT22;5860;52.018;8.536;2022-10-17T17:14:34;18.80;99.90
11609;DHT22;5860;52.018;8.536;2022-10-17T17:17:01;18.80;99.90
11609;DHT22;5860;52.018;8.536;2022-10-17T17:19:27;18.80;99.90
11609;DHT22;5860;52.018;8.536;2022-10-17T17:21:54;18.70;99.90
11609;DHT22;5860;52.018;8.536;2022-10-17T17:24:21;18.70;99.90
11609;DHT22;5860;52.018;8.536;2022-10-17T17:26:50;18.70;99.90
11609;DHT22;5860;52.018;8.536;2022-10-17T17:29:18;18.70;99.90
11609;DHT22;5860;52.018;8.536;2022-10-17T17:31:45;18.70;99.90
11609;DHT22;5860;52.018;8.536;2022-10-17T17:34:12;18.60;99.90
11609;DHT22;5860;52.018;8.536;2022-10-17T17:36:43;18.60;99.90
11609;DHT22;5860;52.018;8.536;2022-10-17T17:39:12;18.60;99.90
11609;DHT22;5860;52.018;8.536;2022-10-17T17:41:40;18.50;99.90
11609;DHT22;5860;52.018;8.536;2022-10-17T17:44:08;18.50;99.90
11609;DHT22;5860;52.018;8.536;2022-10-17T17:46:41;18.60;99.90
11609;DHT22;5860;52.018;8.536;2022-10-17T17:49:09;18.50;99.90
11609;DHT22;5860;52.018;8.536;2022-10-17T17:51:37;18.40;99.90
11609;DHT22;5860;52.018;8.536;2022-10-17T17:54:04;18.40;99.90
11609;DHT22;5860;52.018;8.536;2022-10-17T17:56:31;18.40;99.90
11609;DHT22;5860;52.018;8.536;2022-10-17T17:59:00;18.40;99.90
11609;DHT22;5860;52.018;8.536;2022-10-17T18:01:29;18.40;99.90
11609;DHT22;5860;52.018;8.536;2022-10-17T18:03:58;18.30;99.90
11609;DHT22;5860;52.018;8.536;2022-10-17T18:06:25;18.30;99.90
11609;DHT22;5860;52.018;8.536;2022-10-17T18:08:55;18.30;99.90
11609;DHT22;5860;52.018;8.536;2022-10-17T18:11:24;18.30;99.90
11609;DHT22;5860;52.018;8.536;2022-10-17T18:13:53;18.30;99.90
11609;DHT22;5860;52.018;8.536;2022-10-17T18:16:20;18.20;99.90
11609;DHT22;5860;52.018;8.536;2022-10-17T18:18:47;18.20;99.90
11609;DHT22;5860;52.018;8.536;2022-10-17T18:21:13;18.20;99.90
11609;DHT22;5860;52.018;8.536;2022-10-17T18:23:42;18.20;99.90
11609;DHT22;5860;52.018;8.536;2022-10-17T18:26:11;18.20;99.90
11609;DHT22;5860;52.018;8.536;2022-10-17T18:28:39;18.20;99.90
11609;DHT22;5860;52.018;8.536;2022-10-17T18:31:13;18.20;99.90
11609;DHT22;5860;52.018;8.536;2022-10-17T18:33:41;18.20;99.90